sensor_id;sensor_type;location;lat;lon;timestamp;P1;durP1;ratioP1;P2;durP2;ratioP2
24357;SDS011;13668;52.154;5.580;2022-10-17T00:01:37;9.50;;;7.78;;
24357;SDS011;13668;52.154;5.580;2022-10-17T00:04:03;11.05;;;8.25;;
24357;SDS011;13668;52.154;5.580;2022-10-17T00:06:29;9.75;;;8.50;;
24357;SDS011;13668;52.154;5.580;2022-10-17T00:08:55;12.70;;;8.40;;
24357;SDS011;13668;52.154;5.580;2022-10-17T00:11:21;12.43;;;8.13;;
24357;SDS011;13668;52.154;5.580;2022-10-17T00:13:48;9.10;;;7.32;;
24357;SDS011;13668;52.154;5.580;2022-10-17T00:16:15;10.13;;;8.02;;
24357;SDS011;13668;52.154;5.580;2022-10-17T00:18:41;10.18;;;7.95;;
24357;SDS011;13668;52.154;5.580;2022-10-17T00:21:13;9.73;;;8.70;;
24357;SDS011;13668;52.154;5.580;2022-10-17T00:23:40;9.38;;;8.48;;
24357;SDS011;13668;52.154;5.580;2022-10-17T00:26:05;10.38;;;7.68;;
24357;SDS011;13668;52.154;5.580;2022-10-17T00:28:32;8.60;;;7.70;;
24357;SDS011;13668;52.154;5.580;2022-10-17T00:30:59;10.70;;;8.32;;
24357;SDS011;13668;52.154;5.580;2022-10-17T00:33:26;9.48;;;8.50;;
24357;SDS011;13668;52.154;5.580;2022-10-17T00:36:01;10.13;;;7.82;;
24357;SDS011;13668;52.154;5.580;2022-10-17T00:38:27;9.25;;;8.35;;
24357;SDS011;13668;52.154;5.580;2022-10-17T00:40:52;9.68;;;8.10;;
24357;SDS011;13668;52.154;5.580;2022-10-17T00:43:18;10.98;;;9.48;;
24357;SDS011;13668;52.154;5.580;2022-10-17T00:45:44;10.10;;;9.10;;
24357;SDS011;13668;52.154;5.580;2022-10-17T00:48:10;11.32;;;8.82;;
24357;SDS011;13668;52.154;5.580;2022-10-17T00:50:37;11.15;;;9.38;;
24357;SDS011;13668;52.154;5.580;2022-10-17T00:53:04;14.98;;;9.85;;
24357;SDS011;13668;52.154;5.580;2022-10-17T00:55:32;11.18;;;9.40;;
24357;SDS011;13668;52.154;5.580;2022-10-17T00:58:00;12.20;;;10.60;;
24357;SDS011;13668;52.154;5.580;2022-10-17T01:00:26;12.85;;;9.80;;
24357;SDS011;13668;52.154;5.580;2022-10-17T01:02:52;11.85;;;9.90;;
24357;SDS011;13668;52.154;5.580;2022-10-17T01:05:19;12.73;;;10.20;;
24357;SDS011;13668;52.154;5.580;2022-10-17T01:07:45;12.77;;;9.98;;
24357;SDS011;13668;52.154;5.580;2022-10-17T01:10:12;12.35;;;10.50;;
24357;SDS011;13668;52.154;5.580;2022-10-17T01:12:51;14.73;;;10.85;;
24357;SDS011;13668;52.154;5.580;2022-10-17T01:15:36;12.35;;;10.93;;
24357;SDS011;13668;52.154;5.580;2022-10-17T01:18:25;12.70;;;10.70;;
24357;SDS011;13668;52.154;5.580;2022-10-17T01:21:04;12.43;;;10.57;;
24357;SDS011;13668;52.154;5.580;2022-10-17T01:23:53;13.82;;;11.27;;
24357;SDS011;13668;52.154;5.580;2022-10-17T01:34:17;14.60;;;11.43;;
24357;SDS011;13668;52.154;5.580;2022-10-17T01:37:19;13.02;;;10.80;;
24357;SDS011;13668;52.154;5.580;2022-10-17T01:39:43;13.57;;;11.55;;
24357;SDS011;13668;52.154;5.580;2022-10-17T01:45:19;16.33;;;12.73;;
24357;SDS011;13668;52.154;5.580;2022-10-17T01:47:48;17.23;;;13.07;;
24357;SDS011;13668;52.154;5.580;2022-10-17T01:50:16;13.50;;;11.88;;
24357;SDS011;13668;52.154;5.580;2022-10-17T01:52:53;14.13;;;12.60;;
24357;SDS011;13668;52.154;5.580;2022-10-17T01:55:25;15.57;;;12.27;;
24357;SDS011;13668;52.154;5.580;2022-10-17T01:58:04;18.27;;;12.15;;
24357;SDS011;13668;52.154;5.580;2022-10-17T02:00:31;14.27;;;12.13;;
24357;SDS011;13668;52.154;5.580;2022-10-17T02:02:59;14.75;;;12.18;;
24357;SDS011;13668;52.154;5.580;2022-10-17T02:05:47;14.77;;;12.02;;
24357;SDS011;13668;52.154;5.580;2022-10-17T02:08:12;12.70;;;11.23;;
24357;SDS011;13668;52.154;5.580;2022-10-17T02:15:58;15.35;;;11.60;;
24357;SDS011;13668;52.154;5.580;2022-10-17T02:21:10;15.07;;;11.65;;
24357;SDS011;13668;52.154;5.580;2022-10-17T02:23:54;13.85;;;11.95;;
24357;SDS011;13668;52.154;5.580;2022-10-17T02:26:29;13.55;;;11.63;;
24357;SDS011;13668;52.154;5.580;2022-10-17T02:29:08;16.60;;;13.25;;
24357;SDS011;13668;52.154;5.580;2022-10-17T02:31:39;15.98;;;13.50;;
24357;SDS011;13668;52.154;5.580;2022-10-17T02:34:15;14.15;;;12.65;;
24357;SDS011;13668;52.154;5.580;2022-10-17T02:36:45;16.63;;;13.13;;
24357;SDS011;13668;52.154;5.580;2022-10-17T02:39:12;14.65;;;12.50;;
24357;SDS011;13668;52.154;5.580;2022-10-17T02:41:38;18.35;;;13.35;;
24357;SDS011;13668;52.154;5.580;2022-10-17T02:44:05;19.33;;;13.73;;
24357;SDS011;13668;52.154;5.580;2022-10-17T02:46:32;16.23;;;13.20;;
24357;SDS011;13668;52.154;5.580;2022-10-17T02:49:02;16.73;;;12.88;;
24357;SDS011;13668;52.154;5.580;2022-10-17T02:54:22;16.73;;;13.90;;
24357;SDS011;13668;52.154;5.580;2022-10-17T02:56:54;18.33;;;14.13;;
24357;SDS011;13668;52.154;5.580;2022-10-17T02:59:21;18.88;;;14.60;;
24357;SDS011;13668;52.154;5.580;2022-10-17T03:01:50;18.33;;;14.05;;
24357;SDS011;13668;52.154;5.580;2022-10-17T03:04:17;20.98;;;14.98;;
24357;SDS011;13668;52.154;5.580;2022-10-17T03:06:43;15.95;;;13.73;;
24357;SDS011;13668;52.154;5.580;2022-10-17T03:09:14;19.92;;;15.23;;
24357;SDS011;13668;52.154;5.580;2022-10-17T03:11:40;16.30;;;13.77;;
24357;SDS011;13668;52.154;5.580;2022-10-17T03:14:06;19.15;;;15.05;;
24357;SDS011;13668;52.154;5.580;2022-10-17T03:16:32;18.33;;;14.55;;
24357;SDS011;13668;52.154;5.580;2022-10-17T03:18:58;19.52;;;14.57;;
24357;SDS011;13668;52.154;5.580;2022-10-17T03:21:24;18.88;;;14.23;;
24357;SDS011;13668;52.154;5.580;2022-10-17T03:23:50;17.20;;;14.23;;
24357;SDS011;13668;52.154;5.580;2022-10-17T03:26:16;16.35;;;14.63;;
24357;SDS011;13668;52.154;5.580;2022-10-17T03:28:42;17.90;;;15.43;;
24357;SDS011;13668;52.154;5.580;2022-10-17T03:31:09;17.13;;;14.40;;
24357;SDS011;13668;52.154;5.580;2022-10-17T03:33:35;17.00;;;14.13;;
24357;SDS011;13668;52.154;5.580;2022-10-17T03:36:08;16.75;;;14.95;;
24357;SDS011;13668;52.154;5.580;2022-10-17T03:38:35;16.48;;;14.73;;
24357;SDS011;13668;52.154;5.580;2022-10-17T03:41:01;23.55;;;13.85;;
24357;SDS011;13668;52.154;5.580;2022-10-17T03:43:27;18.17;;;13.88;;
24357;SDS011;13668;52.154;5.580;2022-10-17T03:45:53;15.98;;;14.05;;
24357;SDS011;13668;52.154;5.580;2022-10-17T03:48:19;17.52;;;12.85;;
24357;SDS011;13668;52.154;5.580;2022-10-17T03:50:45;20.25;;;13.27;;
24357;SDS011;13668;52.154;5.580;2022-10-17T03:53:11;15.80;;;14.05;;
24357;SDS011;13668;52.154;5.580;2022-10-17T03:55:37;15.82;;;13.65;;
24357;SDS011;13668;52.154;5.580;2022-10-17T03:58:03;14.50;;;12.80;;
24357;SDS011;13668;52.154;5.580;2022-10-17T04:00:29;15.75;;;13.38;;
24357;SDS011;13668;52.154;5.580;2022-10-17T04:02:55;16.08;;;14.43;;
24357;SDS011;13668;52.154;5.580;2022-10-17T04:05:21;16.45;;;13.95;;
24357;SDS011;13668;52.154;5.580;2022-10-17T04:07:47;19.30;;;13.75;;
24357;SDS011;13668;52.154;5.580;2022-10-17T04:10:13;15.15;;;12.30;;
24357;SDS011;13668;52.154;5.580;2022-10-17T04:12:39;16.33;;;14.07;;
24357;SDS011;13668;52.154;5.580;2022-10-17T04:15:05;17.13;;;13.35;;
24357;SDS011;13668;52.154;5.580;2022-10-17T04:17:32;16.35;;;14.27;;
24357;SDS011;13668;52.154;5.580;2022-10-17T04:19:57;17.80;;;12.35;;
24357;SDS011;13668;52.154;5.580;2022-10-17T04:22:23;17.63;;;13.77;;
24357;SDS011;13668;52.154;5.580;2022-10-17T04:24:49;14.85;;;13.10;;
24357;SDS011;13668;52.154;5.580;2022-10-17T04:27:15;14.50;;;13.02;;
24357;SDS011;13668;52.154;5.580;2022-10-17T04:29:41;15.90;;;12.55;;
24357;SDS011;13668;52.154;5.580;2022-10-17T04:32:08;16.40;;;12.27;;
24357;SDS011;13668;52.154;5.580;2022-10-17T04:34:34;15.57;;;12.95;;
24357;SDS011;13668;52.154;5.580;2022-10-17T04:37:00;16.45;;;13.10;;
24357;SDS011;13668;52.154;5.580;2022-10-17T04:39:26;18.67;;;13.35;;
24357;SDS011;13668;52.154;5.580;2022-10-17T04:41:52;15.68;;;13.45;;
24357;SDS011;13668;52.154;5.580;2022-10-17T04:44:19;13.20;;;11.88;;
24357;SDS011;13668;52.154;5.580;2022-10-17T04:46:45;15.20;;;13.32;;
24357;SDS011;13668;52.154;5.580;2022-10-17T04:49:11;16.35;;;13.27;;
24357;SDS011;13668;52.154;5.580;2022-10-17T04:51:37;15.90;;;13.25;;
24357;SDS011;13668;52.154;5.580;2022-10-17T04:54:03;16.58;;;12.57;;
24357;SDS011;13668;52.154;5.580;2022-10-17T04:56:29;15.07;;;12.35;;
24357;SDS011;13668;52.154;5.580;2022-10-17T04:58:56;15.57;;;12.90;;
24357;SDS011;13668;52.154;5.580;2022-10-17T05:01:23;16.50;;;12.70;;
24357;SDS011;13668;52.154;5.580;2022-10-17T05:03:49;13.98;;;12.07;;
24357;SDS011;13668;52.154;5.580;2022-10-17T05:06:19;14.35;;;12.40;;
24357;SDS011;13668;52.154;5.580;2022-10-17T05:08:46;14.77;;;12.25;;
24357;SDS011;13668;52.154;5.580;2022-10-17T05:11:14;14.02;;;11.52;;
24357;SDS011;13668;52.154;5.580;2022-10-17T05:13:40;14.77;;;12.20;;
24357;SDS011;13668;52.154;5.580;2022-10-17T05:16:06;16.40;;;13.52;;
24357;SDS011;13668;52.154;5.580;2022-10-17T05:18:32;14.23;;;12.82;;
24357;SDS011;13668;52.154;5.580;2022-10-17T05:20:58;15.73;;;12.73;;
24357;SDS011;13668;52.154;5.580;2022-10-17T05:23:24;14.35;;;12.85;;
24357;SDS011;13668;52.154;5.580;2022-10-17T05:25:53;16.45;;;11.98;;
24357;SDS011;13668;52.154;5.580;2022-10-17T05:28:20;14.45;;;11.70;;
24357;SDS011;13668;52.154;5.580;2022-10-17T05:30:46;14.32;;;12.35;;
24357;SDS011;13668;52.154;5.580;2022-10-17T05:33:12;18.83;;;13.23;;
24357;SDS011;13668;52.154;5.580;2022-10-17T05:35:38;14.13;;;11.98;;
24357;SDS011;13668;52.154;5.580;2022-10-17T05:38:04;13.50;;;12.10;;
24357;SDS011;13668;52.154;5.580;2022-10-17T05:40:30;13.27;;;11.98;;
24357;SDS011;13668;52.154;5.580;2022-10-17T05:42:56;13.82;;;12.30;;
24357;SDS011;13668;52.154;5.580;2022-10-17T05:45:22;14.82;;;12.73;;
24357;SDS011;13668;52.154;5.580;2022-10-17T05:47:48;16.13;;;12.68;;
24357;SDS011;13668;52.154;5.580;2022-10-17T05:50:14;15.95;;;12.32;;
24357;SDS011;13668;52.154;5.580;2022-10-17T05:52:40;14.50;;;12.07;;
24357;SDS011;13668;52.154;5.580;2022-10-17T05:55:06;16.50;;;11.57;;
24357;SDS011;13668;52.154;5.580;2022-10-17T05:57:32;13.93;;;11.93;;
24357;SDS011;13668;52.154;5.580;2022-10-17T05:59:58;14.90;;;12.60;;
24357;SDS011;13668;52.154;5.580;2022-10-17T06:02:24;17.35;;;11.73;;
24357;SDS011;13668;52.154;5.580;2022-10-17T06:04:50;13.48;;;11.65;;
24357;SDS011;13668;52.154;5.580;2022-10-17T06:07:16;16.73;;;13.13;;
24357;SDS011;13668;52.154;5.580;2022-10-17T06:09:42;18.17;;;12.95;;
24357;SDS011;13668;52.154;5.580;2022-10-17T06:12:08;15.70;;;12.40;;
24357;SDS011;13668;52.154;5.580;2022-10-17T06:14:34;17.05;;;12.75;;
24357;SDS011;13668;52.154;5.580;2022-10-17T06:17:00;16.15;;;11.98;;
24357;SDS011;13668;52.154;5.580;2022-10-17T06:19:26;16.63;;;12.55;;
24357;SDS011;13668;52.154;5.580;2022-10-17T06:21:52;14.55;;;12.07;;
24357;SDS011;13668;52.154;5.580;2022-10-17T06:24:18;18.77;;;12.90;;
24357;SDS011;13668;52.154;5.580;2022-10-17T06:26:44;15.18;;;12.40;;
24357;SDS011;13668;52.154;5.580;2022-10-17T06:29:11;15.43;;;12.82;;
24357;SDS011;13668;52.154;5.580;2022-10-17T06:31:37;17.00;;;13.38;;
24357;SDS011;13668;52.154;5.580;2022-10-17T06:34:03;17.98;;;13.15;;
24357;SDS011;13668;52.154;5.580;2022-10-17T06:36:29;19.52;;;13.23;;
24357;SDS011;13668;52.154;5.580;2022-10-17T06:38:55;16.02;;;12.73;;
24357;SDS011;13668;52.154;5.580;2022-10-17T06:41:21;17.70;;;13.40;;
24357;SDS011;13668;52.154;5.580;2022-10-17T06:43:47;18.63;;;13.10;;
24357;SDS011;13668;52.154;5.580;2022-10-17T06:46:14;17.25;;;12.80;;
24357;SDS011;13668;52.154;5.580;2022-10-17T06:48:40;13.55;;;12.25;;
24357;SDS011;13668;52.154;5.580;2022-10-17T06:51:06;14.27;;;12.55;;
24357;SDS011;13668;52.154;5.580;2022-10-17T06:53:34;14.52;;;11.98;;
24357;SDS011;13668;52.154;5.580;2022-10-17T06:56:00;17.63;;;12.73;;
24357;SDS011;13668;52.154;5.580;2022-10-17T06:58:28;14.88;;;12.23;;
24357;SDS011;13668;52.154;5.580;2022-10-17T07:00:58;16.20;;;12.77;;
24357;SDS011;13668;52.154;5.580;2022-10-17T07:03:24;17.67;;;12.70;;
24357;SDS011;13668;52.154;5.580;2022-10-17T07:05:53;14.93;;;12.25;;
24357;SDS011;13668;52.154;5.580;2022-10-17T07:08:20;14.00;;;12.23;;
24357;SDS011;13668;52.154;5.580;2022-10-17T07:10:46;16.30;;;12.70;;
24357;SDS011;13668;52.154;5.580;2022-10-17T07:13:12;14.18;;;11.50;;
24357;SDS011;13668;52.154;5.580;2022-10-17T07:15:38;13.18;;;11.77;;
24357;SDS011;13668;52.154;5.580;2022-10-17T07:18:04;17.10;;;13.57;;
24357;SDS011;13668;52.154;5.580;2022-10-17T07:20:30;16.92;;;11.93;;
24357;SDS011;13668;52.154;5.580;2022-10-17T07:22:56;14.65;;;12.13;;
24357;SDS011;13668;52.154;5.580;2022-10-17T07:25:22;14.43;;;11.27;;
24357;SDS011;13668;52.154;5.580;2022-10-17T07:27:49;14.52;;;12.13;;
24357;SDS011;13668;52.154;5.580;2022-10-17T07:30:15;12.95;;;11.55;;
24357;SDS011;13668;52.154;5.580;2022-10-17T07:32:41;14.18;;;10.70;;
24357;SDS011;13668;52.154;5.580;2022-10-17T07:35:07;12.70;;;11.40;;
24357;SDS011;13668;52.154;5.580;2022-10-17T07:37:34;14.90;;;11.77;;
24357;SDS011;13668;52.154;5.580;2022-10-17T07:40:00;15.25;;;12.05;;
24357;SDS011;13668;52.154;5.580;2022-10-17T07:42:26;13.65;;;10.98;;
24357;SDS011;13668;52.154;5.580;2022-10-17T07:44:52;13.68;;;11.90;;
24357;SDS011;13668;52.154;5.580;2022-10-17T07:47:18;14.20;;;12.52;;
24357;SDS011;13668;52.154;5.580;2022-10-17T07:49:44;13.40;;;11.15;;
24357;SDS011;13668;52.154;5.580;2022-10-17T07:52:11;17.58;;;11.95;;
24357;SDS011;13668;52.154;5.580;2022-10-17T07:54:37;13.82;;;10.85;;
24357;SDS011;13668;52.154;5.580;2022-10-17T07:57:03;13.35;;;11.23;;
24357;SDS011;13668;52.154;5.580;2022-10-17T07:59:29;13.85;;;12.00;;
24357;SDS011;13668;52.154;5.580;2022-10-17T08:01:55;13.30;;;10.75;;
24357;SDS011;13668;52.154;5.580;2022-10-17T08:04:21;17.02;;;12.27;;
24357;SDS011;13668;52.154;5.580;2022-10-17T08:06:47;12.93;;;11.10;;
24357;SDS011;13668;52.154;5.580;2022-10-17T08:09:13;13.63;;;11.73;;
24357;SDS011;13668;52.154;5.580;2022-10-17T08:11:40;15.73;;;12.30;;
24357;SDS011;13668;52.154;5.580;2022-10-17T08:14:07;15.93;;;12.52;;
24357;SDS011;13668;52.154;5.580;2022-10-17T08:16:33;13.52;;;11.40;;
24357;SDS011;13668;52.154;5.580;2022-10-17T08:19:00;17.58;;;12.13;;
24357;SDS011;13668;52.154;5.580;2022-10-17T08:21:26;15.60;;;11.93;;
24357;SDS011;13668;52.154;5.580;2022-10-17T08:23:52;14.57;;;11.23;;
24357;SDS011;13668;52.154;5.580;2022-10-17T08:26:18;14.68;;;11.43;;
24357;SDS011;13668;52.154;5.580;2022-10-17T08:28:44;17.77;;;11.90;;
24357;SDS011;13668;52.154;5.580;2022-10-17T08:31:12;15.30;;;11.43;;
24357;SDS011;13668;52.154;5.580;2022-10-17T08:33:38;14.88;;;11.25;;
24357;SDS011;13668;52.154;5.580;2022-10-17T08:36:04;14.63;;;12.35;;
24357;SDS011;13668;52.154;5.580;2022-10-17T08:38:31;14.18;;;12.02;;
24357;SDS011;13668;52.154;5.580;2022-10-17T08:40:59;14.13;;;12.73;;
24357;SDS011;13668;52.154;5.580;2022-10-17T08:43:44;17.55;;;13.25;;
24357;SDS011;13668;52.154;5.580;2022-10-17T08:46:14;14.02;;;12.55;;
24357;SDS011;13668;52.154;5.580;2022-10-17T08:48:41;18.65;;;13.75;;
24357;SDS011;13668;52.154;5.580;2022-10-17T08:51:14;15.05;;;13.07;;
24357;SDS011;13668;52.154;5.580;2022-10-17T08:53:44;16.63;;;12.52;;
24357;SDS011;13668;52.154;5.580;2022-10-17T08:56:17;17.27;;;13.55;;
24357;SDS011;13668;52.154;5.580;2022-10-17T08:58:43;15.88;;;13.85;;
24357;SDS011;13668;52.154;5.580;2022-10-17T09:06:56;15.70;;;12.85;;
24357;SDS011;13668;52.154;5.580;2022-10-17T09:09:28;16.08;;;13.32;;
24357;SDS011;13668;52.154;5.580;2022-10-17T09:14:59;16.38;;;14.00;;
24357;SDS011;13668;52.154;5.580;2022-10-17T09:20:11;16.02;;;13.15;;
24357;SDS011;13668;52.154;5.580;2022-10-17T09:22:41;17.25;;;14.50;;
24357;SDS011;13668;52.154;5.580;2022-10-17T09:25:10;16.05;;;13.70;;
24357;SDS011;13668;52.154;5.580;2022-10-17T09:28:38;16.05;;;14.02;;
24357;SDS011;13668;52.154;5.580;2022-10-17T09:32:58;17.40;;;14.45;;
24357;SDS011;13668;52.154;5.580;2022-10-17T09:35:24;17.23;;;13.82;;
24357;SDS011;13668;52.154;5.580;2022-10-17T09:37:51;16.73;;;14.82;;
24357;SDS011;13668;52.154;5.580;2022-10-17T09:40:23;17.40;;;14.35;;
24357;SDS011;13668;52.154;5.580;2022-10-17T09:42:49;21.77;;;14.65;;
24357;SDS011;13668;52.154;5.580;2022-10-17T09:45:17;18.65;;;14.25;;
24357;SDS011;13668;52.154;5.580;2022-10-17T09:47:48;17.38;;;14.27;;
24357;SDS011;13668;52.154;5.580;2022-10-17T09:50:19;19.02;;;15.35;;
24357;SDS011;13668;52.154;5.580;2022-10-17T09:52:46;16.55;;;14.75;;
24357;SDS011;13668;52.154;5.580;2022-10-17T10:00:37;20.23;;;15.57;;
24357;SDS011;13668;52.154;5.580;2022-10-17T10:03:16;21.02;;;15.60;;
24357;SDS011;13668;52.154;5.580;2022-10-17T10:06:04;20.45;;;15.52;;
24357;SDS011;13668;52.154;5.580;2022-10-17T10:09:02;17.30;;;15.35;;
24357;SDS011;13668;52.154;5.580;2022-10-17T10:11:23;19.65;;;15.57;;
24357;SDS011;13668;52.154;5.580;2022-10-17T10:13:50;17.73;;;14.07;;
24357;SDS011;13668;52.154;5.580;2022-10-17T10:16:21;15.10;;;13.40;;
24357;SDS011;13668;52.154;5.580;2022-10-17T10:18:48;15.15;;;13.48;;
24357;SDS011;13668;52.154;5.580;2022-10-17T10:21:15;16.30;;;13.98;;
24357;SDS011;13668;52.154;5.580;2022-10-17T10:23:42;15.35;;;13.52;;
24357;SDS011;13668;52.154;5.580;2022-10-17T10:26:22;19.27;;;14.52;;
24357;SDS011;13668;52.154;5.580;2022-10-17T10:28:52;16.25;;;13.65;;
24357;SDS011;13668;52.154;5.580;2022-10-17T10:31:24;18.30;;;13.57;;
24357;SDS011;13668;52.154;5.580;2022-10-17T10:33:50;17.98;;;14.35;;
24357;SDS011;13668;52.154;5.580;2022-10-17T10:36:16;16.23;;;14.52;;
24357;SDS011;13668;52.154;5.580;2022-10-17T10:38:50;18.95;;;15.85;;
24357;SDS011;13668;52.154;5.580;2022-10-17T10:41:16;17.02;;;14.82;;
24357;SDS011;13668;52.154;5.580;2022-10-17T10:43:44;16.60;;;15.00;;
24357;SDS011;13668;52.154;5.580;2022-10-17T10:46:20;15.70;;;14.02;;
24357;SDS011;13668;52.154;5.580;2022-10-17T10:51:17;17.45;;;14.38;;
24357;SDS011;13668;52.154;5.580;2022-10-17T11:01:18;16.77;;;14.38;;
24357;SDS011;13668;52.154;5.580;2022-10-17T11:03:49;14.90;;;13.40;;
24357;SDS011;13668;52.154;5.580;2022-10-17T11:06:22;15.85;;;13.68;;
24357;SDS011;13668;52.154;5.580;2022-10-17T11:11:53;15.05;;;13.45;;
24357;SDS011;13668;52.154;5.580;2022-10-17T11:14:23;18.25;;;13.25;;
24357;SDS011;13668;52.154;5.580;2022-10-17T11:17:09;13.68;;;12.25;;
24357;SDS011;13668;52.154;5.580;2022-10-17T11:19:44;13.98;;;12.55;;
24357;SDS011;13668;52.154;5.580;2022-10-17T11:22:18;14.32;;;12.73;;
24357;SDS011;13668;52.154;5.580;2022-10-17T11:27:15;12.18;;;10.65;;
24357;SDS011;13668;52.154;5.580;2022-10-17T11:29:41;13.93;;;12.27;;
24357;SDS011;13668;52.154;5.580;2022-10-17T11:32:12;13.20;;;11.85;;
24357;SDS011;13668;52.154;5.580;2022-10-17T11:34:42;13.23;;;11.93;;
24357;SDS011;13668;52.154;5.580;2022-10-17T11:37:17;12.63;;;10.48;;
24357;SDS011;13668;52.154;5.580;2022-10-17T11:42:33;16.48;;;10.75;;
24357;SDS011;13668;52.154;5.580;2022-10-17T11:45:13;12.30;;;10.60;;
24357;SDS011;13668;52.154;5.580;2022-10-17T11:47:44;12.10;;;10.52;;
24357;SDS011;13668;52.154;5.580;2022-10-17T11:52:48;11.63;;;10.43;;
24357;SDS011;13668;52.154;5.580;2022-10-17T11:57:48;14.25;;;11.65;;
24357;SDS011;13668;52.154;5.580;2022-10-17T12:02:52;13.13;;;11.20;;
24357;SDS011;13668;52.154;5.580;2022-10-17T12:06:31;14.32;;;11.10;;
24357;SDS011;13668;52.154;5.580;2022-10-17T12:18:49;11.15;;;10.00;;
24357;SDS011;13668;52.154;5.580;2022-10-17T12:21:16;11.43;;;10.32;;
24357;SDS011;13668;52.154;5.580;2022-10-17T12:23:52;11.75;;;10.57;;
24357;SDS011;13668;52.154;5.580;2022-10-17T12:26:24;11.50;;;10.40;;
24357;SDS011;13668;52.154;5.580;2022-10-17T12:28:51;10.68;;;9.70;;
24357;SDS011;13668;52.154;5.580;2022-10-17T12:38:38;11.18;;;9.75;;
24357;SDS011;13668;52.154;5.580;2022-10-17T12:41:05;10.95;;;9.93;;
24357;SDS011;13668;52.154;5.580;2022-10-17T12:43:35;11.10;;;10.10;;
24357;SDS011;13668;52.154;5.580;2022-10-17T12:46:02;12.40;;;10.63;;
24357;SDS011;13668;52.154;5.580;2022-10-17T12:51:18;10.45;;;9.50;;
24357;SDS011;13668;52.154;5.580;2022-10-17T12:56:18;12.55;;;11.18;;
24357;SDS011;13668;52.154;5.580;2022-10-17T12:58:44;11.25;;;10.25;;
24357;SDS011;13668;52.154;5.580;2022-10-17T13:01:18;11.88;;;10.65;;
24357;SDS011;13668;52.154;5.580;2022-10-17T13:03:47;12.13;;;10.90;;
24357;SDS011;13668;52.154;5.580;2022-10-17T13:06:18;13.57;;;11.90;;
24357;SDS011;13668;52.154;5.580;2022-10-17T13:08:46;13.02;;;11.70;;
24357;SDS011;13668;52.154;5.580;2022-10-17T13:11:13;12.23;;;10.98;;
24357;SDS011;13668;52.154;5.580;2022-10-17T13:13:49;13.88;;;12.48;;
24357;SDS011;13668;52.154;5.580;2022-10-17T13:16:30;12.93;;;11.50;;
24357;SDS011;13668;52.154;5.580;2022-10-17T13:18:56;14.38;;;11.60;;
24357;SDS011;13668;52.154;5.580;2022-10-17T13:21:22;13.30;;;11.90;;
24357;SDS011;13668;52.154;5.580;2022-10-17T13:23:48;14.98;;;12.30;;
24357;SDS011;13668;52.154;5.580;2022-10-17T13:26:24;13.57;;;12.18;;
24357;SDS011;13668;52.154;5.580;2022-10-17T13:31:30;13.80;;;12.40;;
24357;SDS011;13668;52.154;5.580;2022-10-17T13:33:58;12.48;;;11.18;;
24357;SDS011;13668;52.154;5.580;2022-10-17T13:36:24;13.35;;;12.15;;
24357;SDS011;13668;52.154;5.580;2022-10-17T13:38:50;13.40;;;12.00;;
24357;SDS011;13668;52.154;5.580;2022-10-17T13:41:17;13.27;;;12.07;;
24357;SDS011;13668;52.154;5.580;2022-10-17T13:43:46;13.10;;;11.82;;
24357;SDS011;13668;52.154;5.580;2022-10-17T13:46:16;13.35;;;12.10;;
24357;SDS011;13668;52.154;5.580;2022-10-17T13:48:45;14.48;;;12.07;;
24357;SDS011;13668;52.154;5.580;2022-10-17T13:51:13;14.32;;;12.35;;
24357;SDS011;13668;52.154;5.580;2022-10-17T13:53:39;13.35;;;12.02;;
24357;SDS011;13668;52.154;5.580;2022-10-17T13:56:24;13.50;;;12.13;;
24357;SDS011;13668;52.154;5.580;2022-10-17T13:58:51;13.55;;;12.32;;
24357;SDS011;13668;52.154;5.580;2022-10-17T14:01:17;13.70;;;11.70;;
24357;SDS011;13668;52.154;5.580;2022-10-17T14:03:45;12.45;;;11.15;;
24357;SDS011;13668;52.154;5.580;2022-10-17T14:08:37;12.70;;;11.50;;
24357;SDS011;13668;52.154;5.580;2022-10-17T14:11:23;11.88;;;10.88;;
24357;SDS011;13668;52.154;5.580;2022-10-17T14:13:50;12.55;;;11.35;;
24357;SDS011;13668;52.154;5.580;2022-10-17T14:16:17;13.15;;;11.57;;
24357;SDS011;13668;52.154;5.580;2022-10-17T14:18:45;11.70;;;10.60;;
24357;SDS011;13668;52.154;5.580;2022-10-17T14:21:17;11.15;;;10.10;;
24357;SDS011;13668;52.154;5.580;2022-10-17T14:23:43;13.20;;;10.85;;
24357;SDS011;13668;52.154;5.580;2022-10-17T14:28:44;11.55;;;10.55;;
24357;SDS011;13668;52.154;5.580;2022-10-17T14:33:38;10.35;;;9.45;;
24357;SDS011;13668;52.154;5.580;2022-10-17T14:36:08;11.82;;;9.32;;
24357;SDS011;13668;52.154;5.580;2022-10-17T14:38:34;11.65;;;10.13;;
24357;SDS011;13668;52.154;5.580;2022-10-17T14:41:02;10.82;;;9.75;;
24357;SDS011;13668;52.154;5.580;2022-10-17T14:43:30;11.77;;;10.63;;
24357;SDS011;13668;52.154;5.580;2022-10-17T14:45:56;17.00;;;11.07;;
24357;SDS011;13668;52.154;5.580;2022-10-17T14:48:23;11.73;;;10.25;;
24357;SDS011;13668;52.154;5.580;2022-10-17T14:53:34;11.80;;;10.63;;
24357;SDS011;13668;52.154;5.580;2022-10-17T14:56:02;10.90;;;9.80;;
24357;SDS011;13668;52.154;5.580;2022-10-17T14:58:30;11.27;;;10.07;;
24357;SDS011;13668;52.154;5.580;2022-10-17T15:00:56;12.02;;;10.10;;
24357;SDS011;13668;52.154;5.580;2022-10-17T15:03:23;10.90;;;9.85;;
24357;SDS011;13668;52.154;5.580;2022-10-17T15:05:49;11.30;;;10.25;;
24357;SDS011;13668;52.154;5.580;2022-10-17T15:08:16;10.65;;;9.55;;
24357;SDS011;13668;52.154;5.580;2022-10-17T15:10:42;12.65;;;10.48;;
24357;SDS011;13668;52.154;5.580;2022-10-17T15:13:09;11.60;;;10.60;;
24357;SDS011;13668;52.154;5.580;2022-10-17T15:15:36;11.57;;;10.50;;
24357;SDS011;13668;52.154;5.580;2022-10-17T15:18:02;13.73;;;10.55;;
24357;SDS011;13668;52.154;5.580;2022-10-17T15:20:28;11.48;;;10.38;;
24357;SDS011;13668;52.154;5.580;2022-10-17T15:22:55;13.02;;;11.80;;
24357;SDS011;13668;52.154;5.580;2022-10-17T15:25:21;12.40;;;11.10;;
24357;SDS011;13668;52.154;5.580;2022-10-17T15:27:47;12.15;;;11.02;;
24357;SDS011;13668;52.154;5.580;2022-10-17T15:30:15;12.60;;;10.93;;
24357;SDS011;13668;52.154;5.580;2022-10-17T15:32:42;13.50;;;11.48;;
24357;SDS011;13668;52.154;5.580;2022-10-17T15:35:08;13.20;;;11.32;;
24357;SDS011;13668;52.154;5.580;2022-10-17T15:37:36;12.98;;;11.60;;
24357;SDS011;13668;52.154;5.580;2022-10-17T15:40:03;13.00;;;11.57;;
24357;SDS011;13668;52.154;5.580;2022-10-17T15:42:29;13.07;;;11.52;;
24357;SDS011;13668;52.154;5.580;2022-10-17T15:44:55;11.90;;;10.80;;
24357;SDS011;13668;52.154;5.580;2022-10-17T15:47:29;12.13;;;10.85;;
24357;SDS011;13668;52.154;5.580;2022-10-17T15:49:57;15.35;;;11.80;;
24357;SDS011;13668;52.154;5.580;2022-10-17T15:52:23;14.38;;;10.95;;
24357;SDS011;13668;52.154;5.580;2022-10-17T15:54:49;13.85;;;10.65;;
24357;SDS011;13668;52.154;5.580;2022-10-17T15:57:17;12.20;;;10.60;;
24357;SDS011;13668;52.154;5.580;2022-10-17T15:59:43;11.48;;;10.35;;
24357;SDS011;13668;52.154;5.580;2022-10-17T16:02:14;14.30;;;11.15;;
24357;SDS011;13668;52.154;5.580;2022-10-17T16:04:40;13.32;;;11.25;;
24357;SDS011;13668;52.154;5.580;2022-10-17T16:07:06;12.10;;;11.00;;
24357;SDS011;13668;52.154;5.580;2022-10-17T16:09:32;14.07;;;11.90;;
24357;SDS011;13668;52.154;5.580;2022-10-17T16:11:59;13.77;;;11.75;;
24357;SDS011;13668;52.154;5.580;2022-10-17T16:14:25;12.50;;;11.20;;